createdAt,value
2018-08-30T00:01:45.886Z,9.10
2018-08-30T00:04:14.128Z,9.03
2018-08-30T00:06:42.353Z,8.80
2018-08-30T00:09:10.561Z,8.43
2018-08-30T00:11:38.816Z,9.30
2018-08-30T00:14:07.026Z,8.63
2018-08-30T00:16:35.299Z,7.83
2018-08-30T00:19:03.568Z,8.50
2018-08-30T00:21:31.849Z,9.73
2018-08-30T00:24:00.082Z,9.20
2018-08-30T00:26:28.286Z,10.20
2018-08-30T00:28:56.521Z,9.57
2018-08-30T00:31:24.729Z,10.93
2018-08-30T00:33:53.821Z,10.40
2018-08-30T00:36:22.085Z,11.63
2018-08-30T00:38:50.344Z,12.60
2018-08-30T00:41:18.665Z,13.47
2018-08-30T00:43:46.814Z,14.03
2018-08-30T00:46:15.057Z,14.20
2018-08-30T00:48:43.277Z,17.20
2018-08-30T00:51:11.490Z,17.20
2018-08-30T00:53:39.734Z,17.57
2018-08-30T00:56:07.929Z,17.50
2018-08-30T00:58:36.150Z,19.57
2018-08-30T01:01:04.446Z,20.50
2018-08-30T01:03:32.685Z,21.57
2018-08-30T01:06:01.148Z,21.63
2018-08-30T01:08:29.386Z,22.50
2018-08-30T01:10:57.601Z,20.53
2018-08-30T01:13:25.840Z,21.53
2018-08-30T01:15:54.049Z,21.77
2018-08-30T01:18:22.432Z,21.50
2018-08-30T01:20:50.659Z,21.30
2018-08-30T01:23:18.883Z,20.90
2018-08-30T01:25:47.138Z,21.10
2018-08-30T01:28:15.362Z,20.33
2018-08-30T01:30:43.630Z,20.40
2018-08-30T01:33:11.902Z,20.53
2018-08-30T01:35:40.082Z,22.50
2018-08-30T01:38:08.301Z,20.60
2018-08-30T01:40:36.517Z,21.90
2018-08-30T01:43:05.010Z,20.40
2018-08-30T01:45:33.283Z,20.60
2018-08-30T01:48:01.537Z,22.53
2018-08-30T01:50:29.841Z,21.17
2018-08-30T01:52:58.088Z,23.50
2018-08-30T01:55:26.326Z,23.87
2018-08-30T01:57:54.548Z,23.83
2018-08-30T02:00:22.794Z,23.73
2018-08-30T02:02:51.015Z,24.13
2018-08-30T02:05:19.239Z,26.10
2018-08-30T02:07:47.442Z,25.73
2018-08-30T02:10:15.690Z,27.00
2018-08-30T02:12:43.907Z,27.10
2018-08-30T02:15:12.174Z,28.20
2018-08-30T02:17:40.414Z,28.57
2018-08-30T02:20:08.666Z,27.93
2018-08-30T02:22:36.884Z,27.93
2018-08-30T02:25:05.165Z,29.53
2018-08-30T02:27:33.388Z,29.37
2018-08-30T02:30:01.635Z,30.10
2018-08-30T02:32:29.845Z,28.87
2018-08-30T02:34:58.088Z,31.80
2018-08-30T02:37:26.326Z,31.13
2018-08-30T02:39:54.556Z,30.93
2018-08-30T02:42:22.874Z,31.07
2018-08-30T02:44:51.096Z,31.20
2018-08-30T02:47:19.313Z,30.07
2018-08-30T02:49:47.532Z,29.83
2018-08-30T02:52:15.752Z,31.17
2018-08-30T02:54:44.016Z,31.87
2018-08-30T02:57:12.247Z,32.67
2018-08-30T02:59:40.472Z,30.27
2018-08-30T03:02:08.741Z,31.63
2018-08-30T03:04:36.962Z,31.27
2018-08-30T03:07:05.187Z,33.53
2018-08-30T03:09:33.407Z,32.63
2018-08-30T03:12:01.635Z,31.57
2018-08-30T03:14:29.849Z,30.50
2018-08-30T03:16:58.053Z,32.73
2018-08-30T03:19:26.267Z,30.80
2018-08-30T03:21:54.535Z,31.40
2018-08-30T03:24:22.737Z,31.50
2018-08-30T03:26:50.964Z,32.00
2018-08-30T03:29:19.169Z,30.03
2018-08-30T03:31:47.420Z,29.97
2018-08-30T03:34:15.670Z,30.80
2018-08-30T03:36:43.899Z,29.77
2018-08-30T03:39:12.101Z,29.70
2018-08-30T03:41:40.347Z,30.60
2018-08-30T03:44:08.574Z,30.43
2018-08-30T03:46:36.793Z,29.93
2018-08-30T03:49:05.406Z,29.67
2018-08-30T03:51:33.646Z,29.53
2018-08-30T03:54:01.890Z,28.30
2018-08-30T03:56:30.135Z,29.83
2018-08-30T03:58:58.378Z,28.90
2018-08-30T04:01:26.604Z,26.97
2018-08-30T04:03:54.825Z,27.93
2018-08-30T04:06:23.038Z,28.47
2018-08-30T04:08:51.301Z,27.33
2018-08-30T04:11:19.510Z,28.83
2018-08-30T04:13:47.741Z,26.87
2018-08-30T04:16:15.965Z,26.90
2018-08-30T04:18:44.181Z,25.77
2018-08-30T04:21:12.430Z,27.40
2018-08-30T04:23:40.642Z,26.60
2018-08-30T04:26:08.862Z,27.80
2018-08-30T04:28:37.056Z,27.67
2018-08-30T04:31:05.455Z,27.60
2018-08-30T04:33:33.692Z,25.37
2018-08-30T04:36:01.915Z,28.47
2018-08-30T04:38:30.122Z,26.83
2018-08-30T04:40:58.340Z,28.37
2018-08-30T04:43:26.567Z,26.67
2018-08-30T04:45:54.809Z,26.67
2018-08-30T04:48:23.071Z,27.27
2018-08-30T04:50:51.286Z,29.37
2018-08-30T04:53:19.505Z,27.93
2018-08-30T04:55:47.709Z,27.67
2018-08-30T04:58:16.110Z,27.73
2018-08-30T05:00:44.356Z,25.33
2018-08-30T05:03:12.588Z,26.83
2018-08-30T05:05:40.798Z,26.63
2018-08-30T05:08:09.027Z,26.70
2018-08-30T05:10:37.285Z,27.37
2018-08-30T05:13:05.543Z,25.93
2018-08-30T05:15:33.781Z,26.90
2018-08-30T05:18:02.035Z,25.80
2018-08-30T05:20:30.258Z,26.37
2018-08-30T05:22:58.505Z,26.50
2018-08-30T05:25:26.710Z,26.90
2018-08-30T05:27:54.927Z,25.83
2018-08-30T05:30:23.418Z,28.73
2018-08-30T05:32:51.649Z,27.90
2018-08-30T05:35:19.883Z,27.53
2018-08-30T05:37:48.101Z,27.07
2018-08-30T05:40:16.326Z,27.53
2018-08-30T05:42:44.542Z,26.20
2018-08-30T05:45:12.779Z,26.60
2018-08-30T05:47:40.993Z,25.90
2018-08-30T05:50:09.218Z,27.30
2018-08-30T05:52:37.446Z,28.13
2018-08-30T05:55:05.678Z,26.90
2018-08-30T05:57:33.937Z,26.40
2018-08-30T06:00:02.407Z,25.87
2018-08-30T06:02:30.670Z,25.43
2018-08-30T06:04:59.429Z,26.37
2018-08-30T06:07:27.881Z,25.30
2018-08-30T06:09:56.054Z,24.97
2018-08-30T06:12:24.345Z,25.73
2018-08-30T06:14:52.594Z,24.93
2018-08-30T06:17:20.817Z,24.47
2018-08-30T06:19:49.026Z,23.53
2018-08-30T06:22:17.246Z,22.83
2018-08-30T06:24:45.481Z,22.27
2018-08-30T06:27:13.702Z,22.20
2018-08-30T06:29:41.950Z,21.97
2018-08-30T06:32:10.193Z,20.10
2018-08-30T06:34:38.453Z,21.67
2018-08-30T06:37:06.693Z,20.80
2018-08-30T06:39:35.012Z,19.80
2018-08-30T06:42:03.217Z,20.63
2018-08-30T06:44:31.639Z,21.53
2018-08-30T06:46:59.899Z,20.53
2018-08-30T06:49:28.113Z,20.27
2018-08-30T06:51:56.326Z,19.23
2018-08-30T06:54:24.577Z,18.43
2018-08-30T06:56:52.825Z,19.83
2018-08-30T06:59:21.037Z,20.00
2018-08-30T07:01:49.273Z,18.70
2018-08-30T07:04:17.610Z,18.37
2018-08-30T07:06:45.727Z,20.33
2018-08-30T07:09:13.953Z,20.00
2018-08-30T07:11:42.186Z,19.70
2018-08-30T07:14:10.504Z,18.77
2018-08-30T07:16:38.738Z,20.07
2018-08-30T07:19:06.962Z,20.23
2018-08-30T07:21:35.191Z,19.23
2018-08-30T07:24:03.402Z,21.00
2018-08-30T07:26:31.641Z,20.83
2018-08-30T07:28:59.879Z,20.27
2018-08-30T07:31:28.130Z,20.20
2018-08-30T07:33:56.351Z,21.93
2018-08-30T07:36:24.684Z,21.67
2018-08-30T07:38:52.959Z,20.47
2018-08-30T07:41:21.189Z,21.43
2018-08-30T07:43:49.448Z,22.97
2018-08-30T07:46:17.684Z,22.33
2018-08-30T07:48:45.903Z,23.00
2018-08-30T07:51:14.365Z,21.47
2018-08-30T07:53:42.601Z,21.57
2018-08-30T07:56:10.943Z,22.53
2018-08-30T07:58:39.161Z,21.90
2018-08-30T08:01:07.374Z,23.03
2018-08-30T08:03:35.730Z,20.77
2018-08-30T08:06:04.123Z,19.83
2018-08-30T08:08:32.326Z,18.80
2018-08-30T08:11:00.554Z,19.77
2018-08-30T08:13:28.761Z,20.63
2018-08-30T08:15:59.087Z,20.00
2018-08-30T08:18:27.426Z,22.33
2018-08-30T08:20:55.669Z,21.60
2018-08-30T08:23:23.931Z,20.87
2018-08-30T08:25:52.141Z,20.43
2018-08-30T08:28:20.370Z,19.30
2018-08-30T08:30:48.606Z,18.70
2018-08-30T08:33:16.817Z,19.13
2018-08-30T08:35:45.033Z,18.77
2018-08-30T08:38:13.297Z,17.07
2018-08-30T08:40:41.514Z,17.83
2018-08-30T08:43:09.768Z,15.77
2018-08-30T08:45:38.044Z,17.20
2018-08-30T08:48:06.319Z,17.43
2018-08-30T08:50:34.547Z,16.53
2018-08-30T08:53:02.846Z,15.83
2018-08-30T08:55:31.097Z,14.03
2018-08-30T08:57:59.361Z,13.97
2018-08-30T09:00:27.572Z,13.23
2018-08-30T09:02:55.814Z,13.40
2018-08-30T09:05:24.059Z,12.23
2018-08-30T09:07:52.298Z,11.77
2018-08-30T09:10:20.535Z,11.47
2018-08-30T09:12:48.784Z,11.63
2018-08-30T09:15:17.035Z,11.60
2018-08-30T09:17:45.291Z,11.17
2018-08-30T09:20:13.532Z,10.57
2018-08-30T09:22:41.758Z,11.40
2018-08-30T09:25:09.997Z,9.60
2018-08-30T09:27:38.231Z,9.43
2018-08-30T09:30:06.541Z,9.00
2018-08-30T09:32:34.802Z,8.43
2018-08-30T09:35:03.062Z,7.90
2018-08-30T09:37:31.319Z,6.97
2018-08-30T09:39:59.761Z,7.30
2018-08-30T09:42:27.967Z,6.97
2018-08-30T09:44:56.181Z,7.50
2018-08-30T09:47:24.390Z,5.97
2018-08-30T09:49:52.670Z,6.43
2018-08-30T09:52:20.842Z,5.77
2018-08-30T09:54:49.097Z,4.70
2018-08-30T09:57:17.559Z,4.63
2018-08-30T09:59:45.522Z,4.10
2018-08-30T10:02:18.865Z,4.00
2018-08-30T10:04:47.216Z,4.17
2018-08-30T10:07:15.426Z,4.43
2018-08-30T10:09:43.648Z,3.97
2018-08-30T10:12:11.866Z,4.30
2018-08-30T10:14:40.079Z,4.57
2018-08-30T10:17:08.298Z,3.77
2018-08-30T10:19:36.698Z,4.30
2018-08-30T10:22:05.075Z,4.00
2018-08-30T10:24:33.284Z,4.23
2018-08-30T10:27:01.498Z,4.20
2018-08-30T10:29:29.737Z,4.20
2018-08-30T10:31:58.058Z,3.83
2018-08-30T10:34:26.346Z,4.00
2018-08-30T10:36:54.626Z,3.70
2018-08-30T10:39:22.850Z,3.73
2018-08-30T10:41:51.105Z,3.80
2018-08-30T10:44:19.329Z,3.90
2018-08-30T10:46:47.570Z,4.27
2018-08-30T10:49:16.150Z,3.90
2018-08-30T10:51:44.385Z,3.90
2018-08-30T10:54:12.633Z,3.93
2018-08-30T10:56:40.889Z,3.50
2018-08-30T10:59:09.454Z,2.97
2018-08-30T11:01:37.694Z,3.57
2018-08-30T11:04:06.454Z,3.73
2018-08-30T11:06:34.694Z,3.77
2018-08-30T11:09:03.040Z,3.67
2018-08-30T11:11:31.217Z,3.70
2018-08-30T11:13:59.442Z,3.40
2018-08-30T11:16:27.648Z,3.67
2018-08-30T11:18:55.962Z,3.67
2018-08-30T11:21:24.184Z,3.57
2018-08-30T11:23:52.494Z,3.73
2018-08-30T11:26:20.738Z,3.23
2018-08-30T11:28:48.982Z,3.67
2018-08-30T11:31:17.206Z,3.23
2018-08-30T11:33:45.503Z,3.40
2018-08-30T11:36:13.776Z,3.73
2018-08-30T11:38:42.001Z,3.10
2018-08-30T11:41:10.217Z,3.50
2018-08-30T11:43:38.517Z,2.90
2018-08-30T11:46:06.747Z,3.50
2018-08-30T11:48:35.053Z,3.07
2018-08-30T11:51:03.350Z,2.50
2018-08-30T11:53:31.649Z,3.03
2018-08-30T11:55:59.914Z,2.80
2018-08-30T11:58:28.144Z,2.80
2018-08-30T12:00:56.458Z,3.10
2018-08-30T12:03:24.665Z,3.60
2018-08-30T12:05:53.441Z,3.03
2018-08-30T12:08:21.743Z,3.07
2018-08-30T12:10:50.016Z,2.87
2018-08-30T12:13:18.170Z,2.87
2018-08-30T12:15:46.435Z,3.60
2018-08-30T12:18:14.747Z,2.83
2018-08-30T12:20:43.064Z,2.93
2018-08-30T12:23:11.201Z,2.80
2018-08-30T12:25:39.434Z,3.10
2018-08-30T12:28:07.744Z,3.00
2018-08-30T12:30:36.003Z,2.60
2018-08-30T12:33:04.227Z,2.87
2018-08-30T12:35:32.526Z,2.53
2018-08-30T12:38:00.785Z,2.57
2018-08-30T12:40:29.058Z,2.30
2018-08-30T12:42:57.452Z,3.03
2018-08-30T12:45:25.470Z,3.10
2018-08-30T12:47:54.834Z,2.73
2018-08-30T12:50:23.183Z,2.40
2018-08-30T12:52:51.465Z,2.70
2018-08-30T12:55:19.659Z,3.23
2018-08-30T12:57:47.918Z,2.63
2018-08-30T13:00:16.151Z,2.40
2018-08-30T13:02:44.415Z,2.80
2018-08-30T13:05:12.781Z,2.80
2018-08-30T13:07:40.949Z,2.43
2018-08-30T13:10:09.343Z,2.23
2018-08-30T13:12:37.604Z,2.67
2018-08-30T13:15:05.911Z,2.27
2018-08-30T13:17:34.168Z,2.70
2018-08-30T13:20:02.449Z,2.47
2018-08-30T13:22:30.767Z,2.37
2018-08-30T13:24:59.003Z,2.40
2018-08-30T13:27:27.137Z,2.30
2018-08-30T13:29:55.335Z,2.87
2018-08-30T13:32:23.868Z,2.40
2018-08-30T13:34:52.154Z,2.47
2018-08-30T13:37:20.262Z,2.30
2018-08-30T13:39:48.509Z,3.00
2018-08-30T13:42:16.988Z,1.80
2018-08-30T13:44:45.069Z,1.87
2018-08-30T13:47:13.192Z,2.97
2018-08-30T13:49:41.283Z,2.13
2018-08-30T13:52:10.750Z,2.30
2018-08-30T13:54:38.858Z,2.20
2018-08-30T13:57:07.408Z,2.23
2018-08-30T13:59:36.352Z,2.13
2018-08-30T14:02:03.930Z,2.30
2018-08-30T14:04:32.195Z,2.20
2018-08-30T14:07:00.552Z,2.00
2018-08-30T14:09:28.668Z,2.40
2018-08-30T14:11:56.974Z,1.90
2018-08-30T14:14:25.023Z,2.60
2018-08-30T14:16:52.969Z,2.30
2018-08-30T14:19:21.216Z,2.00
2018-08-30T14:21:49.410Z,2.63
2018-08-30T14:24:17.673Z,2.23
2018-08-30T14:26:45.909Z,2.90
2018-08-30T14:29:14.106Z,2.70
2018-08-30T14:31:42.354Z,2.60
2018-08-30T14:34:10.561Z,2.87
2018-08-30T14:36:39.018Z,2.70
2018-08-30T14:39:08.869Z,2.63
2018-08-30T14:41:37.094Z,2.63
2018-08-30T14:44:05.342Z,3.17
2018-08-30T14:46:33.713Z,2.80
2018-08-30T14:49:01.816Z,2.77
2018-08-30T14:51:30.233Z,2.33
2018-08-30T14:53:58.728Z,3.00
2018-08-30T14:56:26.877Z,2.90
2018-08-30T14:58:55.155Z,2.57
2018-08-30T15:01:23.472Z,2.43
2018-08-30T15:03:51.658Z,2.43
2018-08-30T15:06:19.873Z,2.50
2018-08-30T15:08:48.078Z,2.87
2018-08-30T15:11:16.349Z,2.90
2018-08-30T15:13:44.577Z,2.93
2018-08-30T15:16:12.790Z,2.50
2018-08-30T15:18:41.002Z,3.00
2018-08-30T15:21:09.216Z,2.67
2018-08-30T15:23:37.539Z,2.70
2018-08-30T15:26:05.707Z,2.77
2018-08-30T15:28:33.930Z,2.87
2018-08-30T15:31:02.189Z,3.20
2018-08-30T15:33:30.449Z,3.10
2018-08-30T15:35:58.669Z,2.83
2018-08-30T15:38:26.893Z,2.97
2018-08-30T15:40:55.146Z,2.73
2018-08-30T15:43:23.349Z,2.60
2018-08-30T15:45:51.578Z,3.30
2018-08-30T15:48:19.857Z,3.60
2018-08-30T15:50:47.985Z,2.50
2018-08-30T15:53:16.280Z,3.13
2018-08-30T15:55:44.530Z,2.70
2018-08-30T15:58:12.830Z,2.47
2018-08-30T16:00:41.042Z,2.83
2018-08-30T16:03:09.272Z,3.00
2018-08-30T16:05:37.477Z,2.80
2018-08-30T16:08:05.738Z,2.40
2018-08-30T16:10:34.006Z,2.70
2018-08-30T16:13:02.315Z,3.10
2018-08-30T16:15:30.457Z,2.57
2018-08-30T16:17:58.741Z,2.60
2018-08-30T16:20:26.991Z,3.50
2018-08-30T16:23:02.909Z,2.73
2018-08-30T16:25:31.074Z,2.93
2018-08-30T16:27:58.336Z,2.87
2018-08-30T16:30:26.061Z,3.00
2018-08-30T16:32:54.073Z,2.87
2018-08-30T16:35:22.480Z,2.97
2018-08-30T16:37:50.579Z,2.87
2018-08-30T16:40:19.258Z,3.23
2018-08-30T16:42:47.488Z,3.17
2018-08-30T16:45:15.693Z,3.03
2018-08-30T16:47:43.908Z,3.13
2018-08-30T16:50:12.153Z,3.60
2018-08-30T16:52:40.465Z,3.03
2018-08-30T16:55:08.710Z,2.67
2018-08-30T16:57:37.021Z,3.20
2018-08-30T17:00:05.305Z,3.80
2018-08-30T17:02:33.542Z,2.80
2018-08-30T17:05:01.793Z,2.77
2018-08-30T17:07:30.043Z,2.70
2018-08-30T17:09:58.313Z,2.67
2018-08-30T17:12:26.553Z,2.37
2018-08-30T17:14:54.784Z,3.00
2018-08-30T17:17:23.001Z,2.87
2018-08-30T17:19:51.205Z,2.77
2018-08-30T17:22:19.422Z,2.50
2018-08-30T17:24:47.621Z,2.50
2018-08-30T17:27:15.871Z,2.30
2018-08-30T17:29:44.095Z,2.67
2018-08-30T17:32:12.386Z,3.67
2018-08-30T17:34:40.607Z,2.77
2018-08-30T17:37:08.864Z,3.23
2018-08-30T17:39:37.055Z,2.43
2018-08-30T17:42:05.299Z,2.30
2018-08-30T17:44:33.570Z,2.93
2018-08-30T17:47:01.805Z,3.30
2018-08-30T17:49:30.041Z,2.80
2018-08-30T17:51:58.318Z,2.90
2018-08-30T17:54:26.539Z,2.97
2018-08-30T17:56:54.769Z,2.77
2018-08-30T17:59:22.994Z,3.13
2018-08-30T18:01:51.238Z,2.57
2018-08-30T18:04:19.489Z,2.40
2018-08-30T18:06:47.766Z,2.60
2018-08-30T18:09:15.914Z,2.83
2018-08-30T18:11:44.133Z,2.57
2018-08-30T18:14:12.422Z,3.00
2018-08-30T18:16:40.843Z,3.20
2018-08-30T18:19:09.062Z,2.50
2018-08-30T18:21:37.263Z,2.93
2018-08-30T18:24:05.609Z,2.87
2018-08-30T18:26:33.788Z,2.17
2018-08-30T18:29:02.018Z,3.03
2018-08-30T18:31:30.257Z,3.53
2018-08-30T18:33:58.459Z,3.27
2018-08-30T18:36:26.727Z,2.50
2018-08-30T18:38:54.961Z,2.70
2018-08-30T18:41:23.228Z,2.37
2018-08-30T18:43:51.427Z,3.03
2018-08-30T18:46:19.698Z,2.43
2018-08-30T18:48:47.907Z,2.47
2018-08-30T18:51:16.125Z,3.30
2018-08-30T18:53:44.333Z,2.87
2018-08-30T18:56:12.570Z,3.60
2018-08-30T18:58:40.801Z,3.27
2018-08-30T19:01:09.010Z,3.80
2018-08-30T19:03:37.385Z,3.63
2018-08-30T19:06:05.641Z,3.40
2018-08-30T19:08:34.039Z,2.93
2018-08-30T19:11:02.241Z,3.23
2018-08-30T19:13:30.498Z,3.27
2018-08-30T19:16:03.959Z,3.37
2018-08-30T19:18:37.761Z,3.53
2018-08-30T19:21:06.202Z,3.67
2018-08-30T19:23:34.965Z,3.13
2018-08-30T19:26:03.175Z,3.37
2018-08-30T19:28:31.398Z,3.20
2018-08-30T19:30:59.614Z,3.20
2018-08-30T19:33:27.845Z,2.90
2018-08-30T19:36:01.584Z,3.40
2018-08-30T19:38:29.830Z,3.60
2018-08-30T19:41:03.439Z,3.50
2018-08-30T19:43:32.773Z,3.37
2018-08-30T19:46:00.985Z,3.70
2018-08-30T19:48:29.250Z,3.40
2018-08-30T19:51:02.440Z,3.03
2018-08-30T19:53:30.761Z,2.70
2018-08-30T19:55:58.986Z,2.93
2018-08-30T19:58:29.198Z,3.07
2018-08-30T20:00:57.451Z,3.50
2018-08-30T20:03:25.721Z,3.23
2018-08-30T20:05:53.949Z,3.23
2018-08-30T20:08:22.402Z,3.17
2018-08-30T20:10:50.614Z,3.13
2018-08-30T20:13:19.233Z,2.90
2018-08-30T20:15:47.793Z,3.20
2018-08-30T20:18:16.022Z,2.37
2018-08-30T20:20:44.265Z,2.57
2018-08-30T20:23:12.490Z,2.87
2018-08-30T20:25:40.731Z,3.10
2018-08-30T20:28:08.941Z,2.60
2018-08-30T20:30:37.197Z,2.87
2018-08-30T20:33:05.700Z,2.63
2018-08-30T20:35:33.930Z,2.70
2018-08-30T20:38:02.193Z,3.47
2018-08-30T20:40:30.478Z,2.33
2018-08-30T20:42:58.905Z,2.73
2018-08-30T20:45:27.138Z,2.83
2018-08-30T20:47:55.361Z,3.00
2018-08-30T20:50:23.581Z,3.70
2018-08-30T20:52:51.805Z,3.27
2018-08-30T20:55:20.042Z,3.07
2018-08-30T20:57:48.493Z,3.37
2018-08-30T21:00:16.797Z,3.60
2018-08-30T21:02:44.978Z,2.97
2018-08-30T21:05:13.201Z,3.40
2018-08-30T21:07:41.402Z,3.50
2018-08-30T21:10:09.706Z,3.50
2018-08-30T21:12:37.911Z,3.90
2018-08-30T21:15:06.862Z,3.90
2018-08-30T21:17:35.089Z,3.73
2018-08-30T21:20:03.413Z,3.73
2018-08-30T21:22:31.639Z,3.93
2018-08-30T21:24:59.850Z,3.77
2018-08-30T21:27:28.082Z,3.80
2018-08-30T21:29:56.265Z,3.47
2018-08-30T21:32:24.513Z,3.47
2018-08-30T21:34:52.730Z,3.50
2018-08-30T21:37:20.950Z,3.63
2018-08-30T21:39:49.162Z,3.20
2018-08-30T21:42:17.387Z,3.23
2018-08-30T21:44:45.593Z,3.50
2018-08-30T21:47:13.807Z,3.40
2018-08-30T21:49:42.004Z,3.20
2018-08-30T21:52:10.279Z,3.30
2018-08-30T21:54:38.494Z,3.50
2018-08-30T21:57:06.722Z,2.97
2018-08-30T21:59:34.958Z,2.93
2018-08-30T22:02:03.162Z,2.97
2018-08-30T22:04:31.373Z,3.10
2018-08-30T22:06:59.581Z,3.40
2018-08-30T22:09:27.802Z,2.87
2018-08-30T22:11:56.022Z,3.73
2018-08-30T22:14:24.236Z,3.53
2018-08-30T22:16:52.463Z,3.97
2018-08-30T22:19:20.693Z,3.00
2018-08-30T22:21:48.899Z,3.50
2018-08-30T22:24:17.128Z,3.87
2018-08-30T22:26:45.333Z,3.30
2018-08-30T22:29:13.547Z,3.50
2018-08-30T22:31:41.766Z,2.90
2018-08-30T22:34:09.962Z,3.10
2018-08-30T22:36:38.186Z,3.73
2018-08-30T22:39:07.410Z,3.00
2018-08-30T22:41:35.635Z,2.70
2018-08-30T22:44:03.832Z,3.10
2018-08-30T22:46:32.061Z,3.20
2018-08-30T22:49:00.286Z,2.80
2018-08-30T22:51:28.518Z,3.07
2018-08-30T22:53:56.745Z,3.10
2018-08-30T22:56:24.978Z,3.33
2018-08-30T22:58:53.178Z,3.03
2018-08-30T23:01:21.386Z,3.10
2018-08-30T23:03:49.601Z,3.00
2018-08-30T23:06:17.808Z,3.43
2018-08-30T23:08:46.019Z,3.00
2018-08-30T23:11:14.259Z,3.20
2018-08-30T23:13:42.477Z,2.97
2018-08-30T23:16:10.715Z,3.03
2018-08-30T23:18:38.941Z,3.00
2018-08-30T23:21:07.217Z,2.97
2018-08-30T23:23:35.430Z,3.50
2018-08-30T23:26:03.642Z,2.80
2018-08-30T23:28:31.869Z,2.63
2018-08-30T23:31:00.102Z,2.83
2018-08-30T23:33:28.310Z,3.17
2018-08-30T23:35:56.545Z,2.90
2018-08-30T23:38:24.766Z,2.90
2018-08-30T23:40:52.983Z,3.10
2018-08-30T23:43:21.209Z,3.13
2018-08-30T23:45:49.414Z,3.23
2018-08-30T23:48:17.658Z,3.53
2018-08-30T23:50:45.882Z,3.10
2018-08-30T23:53:14.096Z,2.40
2018-08-30T23:55:42.342Z,3.20
2018-08-30T23:58:21.836Z,2.57
